createdAt,value
2022-08-05T00:00:29.545Z,50.09
2022-08-05T00:03:01.017Z,50.11
2022-08-05T00:06:04.777Z,50.44
2022-08-05T00:08:34.835Z,50.11
2022-08-05T00:11:20.292Z,50.56
2022-08-05T00:13:52.997Z,50.49
2022-08-05T00:16:35.443Z,50.49
2022-08-05T00:19:07.997Z,50.02
2022-08-05T00:21:39.555Z,50.37
2022-08-05T00:24:18.910Z,50.39
2022-08-05T00:26:52.115Z,50.11
2022-08-05T00:29:25.665Z,50.21
2022-08-05T00:32:12.340Z,50.18
2022-08-05T00:35:06.141Z,49.99
2022-08-05T00:37:52.740Z,49.76
2022-08-05T00:40:29.573Z,50.26
2022-08-05T00:43:02.067Z,49.75
2022-08-05T00:45:43.123Z,50.17
2022-08-05T00:48:16.996Z,49.94
2022-08-05T00:50:50.568Z,49.94
2022-08-05T00:53:44.962Z,49.78
2022-08-05T00:56:22.685Z,50.23
2022-08-05T00:58:53.943Z,49.77
2022-08-05T01:01:48.754Z,50.26
2022-08-05T01:04:15.912Z,50.20
2022-08-05T01:06:52.461Z,49.81
2022-08-05T01:09:23.970Z,49.75
2022-08-05T01:12:17.838Z,50.34
2022-08-05T01:15:03.851Z,49.96
2022-08-05T01:17:43.972Z,50.29
2022-08-05T01:20:35.194Z,49.79
2022-08-05T01:23:34.960Z,49.45
2022-08-05T01:26:33.490Z,50.09
2022-08-05T01:29:13.853Z,49.89
2022-08-05T01:31:51.732Z,50.13
2022-08-05T01:34:29.170Z,49.93
2022-08-05T01:37:10.713Z,49.81
2022-08-05T01:39:59.661Z,50.26
2022-08-05T01:42:34.306Z,49.98
2022-08-05T01:45:10.436Z,50.14
2022-08-05T01:47:43.737Z,50.14
2022-08-05T01:50:30.714Z,50.08
2022-08-05T01:53:09.253Z,49.87
2022-08-05T01:55:46.495Z,49.64
2022-08-05T01:58:40.435Z,49.95
2022-08-05T02:01:13.383Z,50.24
2022-08-05T02:03:49.125Z,49.42
2022-08-05T02:06:37.332Z,49.97
2022-08-05T02:09:11.146Z,50.08
2022-08-05T02:11:58.672Z,49.49
2022-08-05T02:14:36.363Z,49.89
2022-08-05T02:18:28.107Z,49.96
2022-08-05T02:20:22.276Z,49.39
2022-08-05T02:23:01.316Z,49.40
2022-08-05T02:25:49.829Z,49.77
2022-08-05T02:28:31.987Z,49.72
2022-08-05T02:31:14.569Z,49.23
2022-08-05T02:33:57.730Z,49.82
2022-08-05T02:36:31.881Z,49.35
2022-08-05T02:39:08.300Z,49.19
2022-08-05T02:41:57.657Z,49.12
2022-08-05T02:44:35.383Z,49.57
2022-08-05T02:47:08.136Z,49.25
2022-08-05T02:49:45.046Z,49.49
2022-08-05T02:52:29.436Z,49.35
2022-08-05T02:55:05.553Z,49.34
2022-08-05T02:58:20.087Z,50.03
2022-08-05T03:00:36.808Z,50.20
2022-08-05T03:03:10.651Z,49.54
2022-08-05T03:06:54.660Z,49.59
2022-08-05T03:08:36.362Z,50.32
2022-08-05T03:11:54.425Z,50.02
2022-08-05T03:14:03.189Z,49.76
2022-08-05T03:16:35.623Z,50.16
2022-08-05T03:19:17.012Z,50.01
2022-08-05T03:21:53.914Z,49.91
2022-08-05T03:24:30.171Z,50.06
2022-08-05T03:27:02.919Z,50.35
2022-08-05T03:29:45.087Z,49.98
2022-08-05T03:32:31.037Z,50.40
2022-08-05T03:35:02.097Z,50.47
2022-08-05T03:37:41.740Z,50.54
2022-08-05T03:40:31.373Z,50.61
2022-08-05T03:43:59.017Z,49.91
2022-08-05T03:45:58.192Z,50.15
2022-08-05T03:48:30.415Z,50.45
2022-08-05T03:52:38.612Z,49.92
2022-08-05T03:55:52.227Z,50.56
2022-08-05T03:57:18.030Z,49.98
2022-08-05T03:59:58.610Z,50.59
2022-08-05T04:02:38.358Z,50.68
2022-08-05T04:05:18.694Z,50.42
2022-08-05T04:07:58.496Z,50.71
2022-08-05T04:10:37.659Z,50.16
2022-08-05T04:13:10.153Z,50.56
2022-08-05T04:16:03.281Z,50.83
2022-08-05T04:18:34.451Z,50.80
2022-08-05T04:21:07.200Z,50.51
2022-08-05T04:24:04.817Z,50.34
2022-08-05T04:26:37.507Z,50.27
2022-08-05T04:29:08.051Z,50.86
2022-08-05T04:31:41.320Z,50.28
2022-08-05T04:34:19.667Z,50.97
2022-08-05T04:37:04.503Z,50.87
2022-08-05T04:39:35.636Z,50.66
2022-08-05T04:42:10.233Z,50.98
2022-08-05T04:44:42.657Z,50.87
2022-08-05T04:47:18.584Z,51.03
2022-08-05T04:50:01.738Z,50.40
2022-08-05T04:52:41.887Z,50.61
2022-08-05T04:55:15.980Z,51.04
2022-08-05T04:57:54.920Z,50.58
2022-08-05T05:00:26.529Z,50.59
2022-08-05T05:03:01.467Z,51.15
2022-08-05T05:05:34.839Z,51.02
2022-08-05T05:08:26.645Z,50.56
2022-08-05T05:11:01.217Z,50.54
2022-08-05T05:13:43.243Z,50.50
2022-08-05T05:16:14.268Z,51.17
2022-08-05T05:19:08.966Z,51.10
2022-08-05T05:21:37.450Z,51.16
2022-08-05T05:24:10.458Z,50.45
2022-08-05T05:26:42.825Z,51.19
2022-08-05T05:29:19.498Z,50.47
2022-08-05T05:31:50.462Z,50.87
2022-08-05T05:34:26.899Z,50.90
2022-08-05T05:36:58.268Z,50.55
2022-08-05T05:39:34.538Z,50.39
2022-08-05T05:42:07.812Z,50.92
2022-08-05T05:44:43.136Z,50.32
2022-08-05T05:47:30.468Z,50.28
2022-08-05T05:50:09.972Z,50.46
2022-08-05T05:52:47.500Z,50.42
2022-08-05T05:55:21.147Z,50.33
2022-08-05T05:57:53.232Z,50.60
2022-08-05T06:00:31.490Z,50.49
2022-08-05T06:03:40.255Z,50.44
2022-08-05T06:05:56.215Z,49.86
2022-08-05T06:08:32.284Z,50.51
2022-08-05T06:11:04.216Z,50.05
2022-08-05T06:13:40.734Z,50.51
2022-08-05T06:16:30.902Z,50.40
2022-08-05T06:19:05.976Z,50.46
2022-08-05T06:21:42.945Z,50.46
2022-08-05T06:24:25.671Z,50.08
2022-08-05T06:26:57.857Z,50.07
2022-08-05T06:29:46.326Z,50.31
2022-08-05T06:32:25.973Z,49.81
2022-08-05T06:34:58.074Z,50.20
2022-08-05T06:37:56.818Z,50.33
2022-08-05T06:40:21.798Z,50.16
2022-08-05T06:42:58.907Z,50.06
2022-08-05T06:45:44.413Z,49.73
2022-08-05T06:48:55.797Z,49.50
2022-08-05T06:51:25.254Z,49.55
2022-08-05T06:54:01.910Z,49.27
2022-08-05T06:56:35.287Z,49.05
2022-08-05T06:59:09.689Z,49.52
2022-08-05T07:01:42.608Z,49.11
2022-08-05T07:04:16.350Z,49.14
2022-08-05T07:06:50.606Z,49.23
2022-08-05T07:09:21.650Z,49.20
2022-08-05T07:11:56.331Z,49.35
2022-08-05T07:14:50.174Z,49.17
2022-08-05T07:18:00.539Z,48.52
2022-08-05T07:20:33.062Z,48.56
2022-08-05T07:23:04.968Z,48.61
2022-08-05T07:25:55.707Z,48.89
2022-08-05T07:28:28.101Z,48.53
2022-08-05T07:30:59.261Z,48.83
2022-08-05T07:33:37.268Z,48.94
2022-08-05T07:36:19.862Z,48.51
2022-08-05T07:38:54.980Z,48.97
2022-08-05T07:42:08.645Z,48.55
2022-08-05T07:44:19.682Z,48.44
2022-08-05T07:46:52.273Z,48.28
2022-08-05T07:49:24.494Z,48.26
2022-08-05T07:51:56.235Z,48.55
2022-08-05T07:54:31.190Z,48.80
2022-08-05T07:57:16.941Z,48.53
2022-08-05T07:59:54.821Z,48.61
2022-08-05T08:03:13.662Z,48.39
2022-08-05T08:05:23.496Z,48.28
2022-08-05T08:08:00.729Z,48.42
2022-08-05T08:10:31.970Z,48.48
2022-08-05T08:13:04.881Z,48.39
2022-08-05T08:16:33.505Z,47.86
2022-08-05T08:18:28.302Z,48.12
2022-08-05T08:21:03.002Z,48.02
2022-08-05T08:24:03.054Z,47.98
2022-08-05T08:26:30.013Z,48.28
2022-08-05T08:30:03.126Z,48.16
2022-08-05T08:31:54.522Z,48.00
2022-08-05T08:34:30.886Z,47.68
2022-08-05T08:37:05.565Z,47.95
2022-08-05T08:39:38.543Z,48.14
2022-08-05T08:42:46.623Z,47.97
2022-08-05T08:45:18.521Z,47.90
2022-08-05T08:48:07.475Z,48.03
2022-08-05T08:51:04.162Z,47.61
2022-08-05T08:53:44.457Z,47.91
2022-08-05T08:56:20.505Z,47.68
2022-08-05T08:58:59.781Z,47.31
2022-08-05T09:01:32.100Z,47.44
2022-08-05T09:04:05.529Z,47.85
2022-08-05T09:06:41.969Z,47.20
2022-08-05T09:09:13.824Z,47.46
2022-08-05T09:11:51.697Z,47.62
2022-08-05T09:14:57.860Z,47.15
2022-08-05T09:17:42.647Z,47.65
2022-08-05T09:20:10.341Z,47.45
2022-08-05T09:23:18.531Z,46.96
2022-08-05T09:26:02.156Z,46.84
2022-08-05T09:28:39.725Z,46.91
2022-08-05T09:31:44.174Z,47.28
2022-08-05T09:34:09.909Z,46.77
2022-08-05T09:36:56.391Z,47.04
2022-08-05T09:39:44.885Z,46.99
2022-08-05T09:42:24.359Z,46.60
2022-08-05T09:46:04.945Z,46.95
2022-08-05T09:48:01.434Z,46.75
2022-08-05T09:50:44.203Z,46.55
2022-08-05T09:53:25.905Z,46.86
2022-08-05T09:56:12.967Z,46.47
2022-08-05T09:58:44.428Z,46.73
2022-08-05T10:01:32.159Z,46.75
2022-08-05T10:04:10.322Z,46.39
2022-08-05T10:06:54.900Z,46.69
2022-08-05T10:09:30.223Z,46.70
2022-08-05T10:12:30.414Z,46.66
2022-08-05T10:15:24.022Z,46.67
2022-08-05T10:18:18.454Z,46.94
2022-08-05T10:20:54.183Z,46.41
2022-08-05T10:23:55.418Z,46.30
2022-08-05T10:26:18.922Z,46.73
2022-08-05T10:28:56.494Z,46.54
2022-08-05T10:33:00.861Z,46.28
2022-08-05T10:34:25.769Z,46.55
2022-08-05T10:37:03.636Z,46.40
2022-08-05T10:39:59.386Z,46.54
2022-08-05T10:42:39.530Z,47.01
2022-08-05T10:45:23.719Z,46.16
2022-08-05T10:48:30.670Z,46.63
2022-08-05T10:51:06.219Z,46.51
2022-08-05T10:54:01.570Z,46.36
2022-08-05T10:56:47.392Z,46.23
2022-08-05T11:00:02.220Z,46.62
2022-08-05T11:02:34.652Z,46.80
2022-08-05T11:05:12.660Z,46.48
2022-08-05T11:08:21.669Z,46.85
2022-08-05T11:11:01.024Z,46.28
2022-08-05T11:13:55.082Z,46.44
2022-08-05T11:16:33.836Z,46.67
2022-08-05T11:20:16.515Z,46.36
2022-08-05T11:22:49.874Z,46.06
2022-08-05T11:26:05.416Z,46.69
2022-08-05T11:28:47.591Z,46.43
2022-08-05T11:31:57.972Z,46.54
2022-08-05T11:34:54.226Z,46.75
2022-08-05T11:38:30.195Z,46.11
2022-08-05T11:41:35.698Z,46.77
2022-08-05T11:44:07.193Z,46.25
2022-08-05T11:47:10.109Z,46.82
2022-08-05T11:49:35.312Z,46.80
2022-08-05T11:52:11.225Z,46.10
2022-08-05T11:54:43.461Z,46.66
2022-08-05T11:58:08.335Z,46.50
2022-08-05T12:00:28.821Z,46.14
2022-08-05T12:02:59.743Z,46.62
2022-08-05T12:05:36.452Z,46.00
2022-08-05T12:08:17.960Z,46.24
2022-08-05T12:10:53.243Z,46.51
2022-08-05T12:13:47.774Z,46.02
2022-08-05T12:16:26.994Z,46.30
2022-08-05T12:18:59.214Z,46.11
2022-08-05T12:21:33.252Z,46.31
2022-08-05T12:24:17.320Z,46.59
2022-08-05T12:26:52.204Z,46.29
2022-08-05T12:29:28.194Z,46.40
2022-08-05T12:32:10.367Z,46.54
2022-08-05T12:34:42.632Z,46.60
2022-08-05T12:37:17.575Z,46.00
2022-08-05T12:39:55.378Z,45.99
2022-08-05T12:42:35.097Z,45.93
2022-08-05T12:45:11.565Z,45.92
2022-08-05T12:48:01.470Z,46.57
2022-08-05T12:50:35.846Z,46.57
2022-08-05T12:53:07.036Z,46.30
2022-08-05T12:55:39.371Z,46.14
2022-08-05T12:58:38.337Z,45.94
2022-08-05T13:02:02.755Z,45.75
2022-08-05T13:03:53.939Z,46.19
2022-08-05T13:06:25.793Z,45.97
2022-08-05T13:08:56.760Z,46.21
2022-08-05T13:12:02.375Z,46.46
2022-08-05T13:14:36.626Z,45.98
2022-08-05T13:17:25.022Z,46.43
2022-08-05T13:20:07.110Z,46.07
2022-08-05T13:22:42.222Z,45.90
2022-08-05T13:25:19.132Z,46.00
2022-08-05T13:27:54.298Z,46.39
2022-08-05T13:30:35.897Z,46.02
2022-08-05T13:34:20.039Z,45.91
2022-08-05T13:36:02.587Z,45.58
2022-08-05T13:38:36.194Z,45.35
2022-08-05T13:41:10.063Z,45.85
2022-08-05T13:43:45.034Z,45.13
2022-08-05T13:46:43.815Z,45.07
2022-08-05T13:49:20.396Z,45.27
2022-08-05T13:51:52.393Z,45.39
2022-08-05T13:54:27.015Z,45.99
2022-08-05T13:56:58.165Z,45.27
2022-08-05T13:59:30.691Z,45.54
2022-08-05T14:02:02.933Z,45.97
2022-08-05T14:04:53.943Z,45.43
2022-08-05T14:08:00.845Z,45.96
2022-08-05T14:10:28.139Z,45.57
2022-08-05T14:13:00.658Z,45.69
2022-08-05T14:16:05.835Z,45.59
2022-08-05T14:18:24.073Z,45.70
2022-08-05T14:20:57.915Z,45.52
2022-08-05T14:23:33.706Z,45.50
2022-08-05T14:26:08.550Z,45.27
2022-08-05T14:28:59.900Z,45.83
2022-08-05T14:32:03.542Z,45.85
2022-08-05T14:34:23.683Z,45.95
2022-08-05T14:36:57.336Z,45.28
2022-08-05T14:39:30.185Z,45.80
2022-08-05T14:42:22.061Z,45.41
2022-08-05T14:44:53.893Z,45.65
2022-08-05T14:48:05.710Z,45.26
2022-08-05T14:50:20.426Z,46.12
2022-08-05T14:52:57.669Z,46.15
2022-08-05T14:55:39.394Z,46.15
2022-08-05T14:58:14.072Z,45.61
2022-08-05T15:00:59.216Z,46.20
2022-08-05T15:03:33.958Z,46.04
2022-08-05T15:06:15.014Z,46.18
2022-08-05T15:08:59.753Z,46.02
2022-08-05T15:11:51.082Z,45.80
2022-08-05T15:14:34.943Z,46.11
2022-08-05T15:17:09.865Z,45.82
2022-08-05T15:20:00.873Z,45.89
2022-08-05T15:22:33.012Z,45.83
2022-08-05T15:25:13.592Z,45.94
2022-08-05T15:27:52.494Z,45.76
2022-08-05T15:30:25.651Z,45.83
2022-08-05T15:32:57.123Z,45.88
2022-08-05T15:35:36.010Z,46.16
2022-08-05T15:38:34.951Z,46.60
2022-08-05T15:41:22.649Z,46.39
2022-08-05T15:43:55.053Z,46.07
2022-08-05T15:46:27.678Z,46.67
2022-08-05T15:49:09.907Z,46.75
2022-08-05T15:52:03.723Z,46.69
2022-08-05T15:54:37.614Z,46.47
2022-08-05T15:57:12.253Z,46.89
2022-08-05T15:59:43.869Z,46.65
2022-08-05T16:02:19.685Z,46.38
2022-08-05T16:04:57.686Z,47.07
2022-08-05T16:07:29.595Z,46.98
2022-08-05T16:10:03.438Z,46.77
2022-08-05T16:13:04.832Z,46.84
2022-08-05T16:15:39.064Z,46.85
2022-08-05T16:18:14.876Z,46.75
2022-08-05T16:20:47.135Z,47.20
2022-08-05T16:23:20.903Z,47.24
2022-08-05T16:25:55.457Z,46.79
2022-08-05T16:29:37.935Z,46.87
2022-08-05T16:32:10.070Z,47.33
2022-08-05T16:34:50.914Z,46.83
2022-08-05T16:38:03.119Z,47.23
2022-08-05T16:40:26.643Z,46.91
2022-08-05T16:46:13.066Z,47.12
2022-08-05T16:48:57.867Z,47.14
2022-08-05T16:51:42.553Z,47.22
2022-08-05T16:54:45.349Z,47.25
2022-08-05T16:57:42.948Z,47.18
2022-08-05T17:00:26.180Z,47.35
2022-08-05T17:03:15.463Z,47.79
2022-08-05T17:05:54.020Z,47.85
2022-08-05T17:08:35.903Z,47.35
2022-08-05T17:11:23.838Z,47.83
2022-08-05T17:14:06.565Z,47.25
2022-08-05T17:16:41.490Z,47.94
2022-08-05T17:19:18.777Z,47.35
2022-08-05T17:21:54.045Z,47.32
2022-08-05T17:24:38.605Z,48.02
2022-08-05T17:27:16.973Z,47.93
2022-08-05T17:29:52.776Z,47.53
2022-08-05T17:32:34.582Z,47.77
2022-08-05T17:35:12.401Z,48.05
2022-08-05T17:37:51.733Z,48.13
2022-08-05T17:40:34.183Z,48.08
2022-08-05T17:43:50.543Z,47.87
2022-08-05T17:46:19.631Z,47.68
2022-08-05T17:48:57.951Z,48.33
2022-08-05T17:51:40.064Z,48.23
2022-08-05T17:54:11.104Z,47.84
2022-08-05T17:56:55.782Z,47.77
2022-08-05T17:59:29.911Z,48.16
2022-08-05T18:02:03.029Z,48.22
2022-08-05T18:04:53.216Z,48.25
2022-08-05T18:07:32.798Z,47.82
2022-08-05T18:10:20.573Z,47.63
2022-08-05T18:12:52.879Z,48.10
2022-08-05T18:15:28.090Z,48.21
2022-08-05T18:18:11.294Z,48.22
2022-08-05T18:20:42.793Z,47.76
2022-08-05T18:23:20.270Z,48.17
2022-08-05T18:25:57.867Z,47.81
2022-08-05T18:28:33.975Z,47.89
2022-08-05T18:31:08.959Z,47.89
2022-08-05T18:33:51.481Z,48.00
2022-08-05T18:36:27.820Z,48.40
2022-08-05T18:39:09.744Z,48.17
2022-08-05T18:42:04.703Z,48.32
2022-08-05T18:44:51.473Z,47.93
2022-08-05T18:47:33.918Z,48.37
2022-08-05T18:50:42.239Z,48.39
2022-08-05T18:53:25.311Z,48.26
2022-08-05T18:56:12.407Z,48.17
2022-08-05T18:58:45.308Z,48.30
2022-08-05T19:01:33.280Z,47.84
2022-08-05T19:04:23.893Z,48.27
2022-08-05T19:07:04.031Z,48.12
2022-08-05T19:09:40.054Z,48.11
2022-08-05T19:12:23.574Z,48.09
2022-08-05T19:15:25.188Z,48.58
2022-08-05T19:18:10.304Z,48.34
2022-08-05T19:20:52.572Z,48.04
2022-08-05T19:24:05.271Z,47.99
2022-08-05T19:26:22.682Z,48.20
2022-08-05T19:29:01.906Z,48.48
2022-08-05T19:31:51.233Z,48.33
2022-08-05T19:34:23.477Z,48.63
2022-08-05T19:36:55.013Z,48.61
2022-08-05T19:39:45.685Z,48.55
2022-08-05T19:42:35.502Z,48.14
2022-08-05T19:45:39.386Z,48.64
2022-08-05T19:48:56.147Z,48.18
2022-08-05T19:52:05.917Z,48.29
2022-08-05T19:54:43.925Z,49.00
2022-08-05T19:57:47.388Z,48.46
2022-08-05T20:00:44.808Z,48.60
2022-08-05T20:03:37.992Z,48.30
2022-08-05T20:06:15.952Z,49.13
2022-08-05T20:09:29.030Z,48.97
2022-08-05T20:12:12.893Z,49.22
2022-08-05T20:14:52.291Z,49.07
2022-08-05T20:17:35.009Z,48.40
2022-08-05T20:20:18.749Z,48.40
2022-08-05T20:22:49.990Z,48.83
2022-08-05T20:25:41.797Z,48.75
2022-08-05T20:28:14.821Z,48.69
2022-08-05T20:30:48.332Z,48.94
2022-08-05T20:33:42.355Z,49.07
2022-08-05T20:36:28.645Z,48.51
2022-08-05T20:39:04.621Z,48.51
2022-08-05T20:41:43.905Z,49.02
2022-08-05T20:47:17.493Z,49.21
2022-08-05T20:50:05.237Z,49.17
2022-08-05T20:52:39.495Z,48.80
2022-08-05T20:55:54.463Z,49.17
2022-08-05T20:58:09.281Z,48.77
2022-08-05T21:00:54.632Z,49.08
2022-08-05T21:03:34.911Z,49.02
2022-08-05T21:06:27.864Z,49.08
2022-08-05T21:09:05.888Z,48.43
2022-08-05T21:12:07.444Z,49.12
2022-08-05T21:14:39.288Z,49.10
2022-08-05T21:17:21.902Z,48.78
2022-08-05T21:19:53.023Z,49.06
2022-08-05T21:22:32.238Z,48.83
2022-08-05T21:25:03.208Z,49.19
2022-08-05T21:27:39.125Z,48.74
2022-08-05T21:30:17.451Z,49.11
2022-08-05T21:32:59.142Z,48.73
2022-08-05T21:35:56.035Z,48.84
2022-08-05T21:38:25.526Z,48.68
2022-08-05T21:40:56.572Z,49.03
2022-08-05T21:43:29.049Z,48.34
2022-08-05T21:46:12.684Z,48.89
2022-08-05T21:48:43.981Z,48.74
2022-08-05T21:52:15.715Z,48.63
2022-08-05T21:54:08.355Z,48.51
2022-08-05T21:56:44.708Z,48.80
2022-08-05T21:59:25.005Z,48.46
2022-08-05T22:02:01.720Z,48.68
2022-08-05T22:04:37.102Z,48.64
2022-08-05T22:07:09.161Z,47.97
2022-08-05T22:09:47.346Z,48.64
2022-08-05T22:12:18.358Z,48.65
2022-08-05T22:14:57.612Z,48.76
2022-08-05T22:17:29.403Z,48.06
2022-08-05T22:20:13.233Z,48.63
2022-08-05T22:23:02.270Z,48.71
2022-08-05T22:26:11.167Z,48.32
2022-08-05T22:28:42.575Z,48.66
2022-08-05T22:31:13.927Z,48.64
2022-08-05T22:33:55.939Z,48.61
2022-08-05T22:36:32.470Z,48.49
2022-08-05T22:39:04.122Z,48.98
2022-08-05T22:42:10.151Z,48.39
2022-08-05T22:44:35.968Z,48.29
2022-08-05T22:47:08.585Z,48.67
2022-08-05T22:50:19.629Z,48.77
2022-08-05T22:52:42.888Z,48.47
2022-08-05T22:55:19.021Z,48.59
2022-08-05T22:57:56.274Z,48.47
2022-08-05T23:00:35.061Z,48.73
2022-08-05T23:03:13.498Z,48.67
2022-08-05T23:06:03.616Z,48.93
2022-08-05T23:08:37.283Z,49.00
2022-08-05T23:11:19.713Z,48.29
2022-08-05T23:13:54.589Z,48.30
2022-08-05T23:16:38.491Z,48.92
2022-08-05T23:19:23.757Z,48.42
2022-08-05T23:21:59.215Z,48.39
2022-08-05T23:24:31.140Z,48.79
2022-08-05T23:27:02.866Z,48.24
2022-08-05T23:29:38.492Z,48.35
2022-08-05T23:32:10.659Z,48.40
2022-08-05T23:34:54.428Z,48.41
2022-08-05T23:37:38.830Z,48.95
2022-08-05T23:40:14.587Z,48.70
2022-08-05T23:42:47.344Z,48.77
2022-08-05T23:45:35.063Z,48.47
2022-08-05T23:48:11.381Z,48.38
2022-08-05T23:50:48.959Z,49.01
2022-08-05T23:53:46.144Z,48.91
2022-08-05T23:56:20.196Z,49.12
2022-08-05T23:59:01.062Z,48.58
